ジュネーヴ の空港の天気 - METARとTAF

ジュネーヴ・コアントラン国際空港 ( LSGG / GVA ) - スイス ジュネーヴ
飛行場実況気象(Metar)
観測時間09/16 16:50 CEST (09/16 14:50 UTC)
風向・風速東 3m/s
視程10km以上
天気現象
少しの雲 雲底高度 1520m
気温28℃
湿度42%
気圧1019hPa
METARLSGG 161450Z 09005KT 050V140 9999 FEW050 28/14 Q1019 NOSIG
過去の天気等 Google飛行場航空写真 Wunderground天気予報

過去48時間のMETAR

飛行場予報(TAF)
発表時間: 9/16 16:25 CEST (9/16 14:25 UTC)
予報対象時間: 16日17時 CEST ~ 17日23時 CEST
風向・風速東北東 2m/s
視程10km以上
少しの雲 雲底高度 1370m
16日20時 CEST ~ 16日22時 CEST に徐々に
風向・風速不定 2m/s
視程10km以上
なし
17日12時 CEST ~ 17日15時 CEST に徐々に
風向・風速東北東 4m/s
視程10km以上
少しの雲 雲底高度 1520m
TAF LSGG 161425Z 1615/1721 06004KT 9999 FEW045 TX29/1615Z TN14/1705Z TX28/1715Z
BECMG 1618/1620 VRB03KT CAVOK
BECMG 1710/1713 06007KT 9999 FEW050